Airfield :
LOGIN :

Register | Disclaimer

   EN    FR    IT 

 










Legend :    VFR   Marginal VFR   IFR   Intensive IFR   Very Intensive IFR
Visi :
Ceiling :
>= 8 km
>= 3000ft
5 to 8 km
1000 to 3000 ft
1500m to 5 km
500 to 1000 ft
800 to 1500m
200 to 500 ft
< 800m
< 200 ft
Symbols :   Thunderstorms  Fog  Heavy snow  Heavy precipitations  Wind > 20 kt
SIGMETs :     Misc.  Thunderstorms  Icing  Turbulence  Mountain Waves  Volcanic Ashes







- Airport Elevation : 59 ft
- IATA code : TSF


LIPH - Treviso

CURRENT METAR :
  • 241220Z VRB04KT 9999 FEW060 25/12 Q1017

EXPIRED METARs :
  • 241150Z 18006KT 100V240 CAVOK 25/10 Q1017
  • 241120Z 21006KT 170V250 CAVOK 25/10 Q1018
  • 241050Z 19007KT 150V220 CAVOK 25/12 Q1018
  • 241020Z 21006KT 170V240 CAVOK 24/11 Q1018
  • 240950Z VRB04KT CAVOK 24/10 Q1018

TAF TAF LIPH
Valid from the 24 at 12:00 until the 25 at 12:00 UTC


241100Z 2412/2512 VRB05KT 9999 SCT040
TEMPO 2418/2503 TSRA
TEMPO 2508/2512 SHRA
No reported NOTAMs for that airfield.



MET'MAP, your aeronautical weather chart ! - Copyright ORBIFLY December 2007 - Disclaimer

ORBIFLY MET'MAP TEAM :

Programming & Development : Alexandra Zaïnal
Concept & Development : Baudouin d'Aumeries
Co-Development & Prog : Marc-Olivier Méhu
Technical & hardware support : Manuel Goepfert

Contact : metmap@orbifly.com




SOURCES & CREDITS :

   NOAA